Time;durP1;ratioP1;P1;durP2;ratioP2;P2;SDS_P1;SDS_P2;PMS_P1;PMS_P2;Temp;Humidity;BMP_temperature;BMP_pressure;BME280_temperature;BME280_humidity;BME280_pressure;Samples;Min_cycle;Max_cycle;Signal;HPM_P1;HPM_P2
2024/03/28 00:00:55;;;;;;;2.90;2.70;;;5.50;99.90;;;;;;493929;241;27926;-73
2024/03/28 00:02:57;;;;;;;2.95;2.70;;;5.50;99.90;;;;;;493867;241;27505;-71
2024/03/28 00:04:58;;;;;;;3.75;3.45;;;5.50;99.90;;;;;;493948;241;27513;-72
2024/03/28 00:06:59;;;;;;;2.87;2.67;;;5.40;99.90;;;;;;493963;241;27466;-74
2024/03/28 00:09:00;;;;;;;3.10;2.90;;;5.40;99.90;;;;;;493947;241;27535;-72
2024/03/28 00:11:02;;;;;;;3.10;2.87;;;5.40;99.90;;;;;;493952;241;27477;-74
2024/03/28 00:13:03;;;;;;;3.50;3.20;;;5.40;99.90;;;;;;493967;241;27713;-74
2024/03/28 00:15:04;;;;;;;3.25;3.05;;;5.30;99.90;;;;;;494010;241;28082;-77
2024/03/28 00:17:05;;;;;;;3.70;2.95;;;5.30;99.90;;;;;;493976;241;27934;-73
2024/03/28 00:19:07;;;;;;;4.15;3.55;;;5.30;99.90;;;;;;493981;241;27493;-74
2024/03/28 00:21:08;;;;;;;3.47;3.17;;;5.30;99.90;;;;;;493957;241;27525;-71
2024/03/28 00:23:09;;;;;;;3.58;3.05;;;5.20;99.90;;;;;;493988;241;27518;-71
2024/03/28 00:25:10;;;;;;;3.33;3.08;;;5.20;99.90;;;;;;493985;241;27622;-72
2024/03/28 00:27:12;;;;;;;2.90;2.70;;;5.10;99.90;;;;;;493831;241;27482;-73
2024/03/28 00:29:13;;;;;;;3.78;3.47;;;5.10;99.90;;;;;;493966;241;28326;-71
2024/03/28 00:31:14;;;;;;;3.22;2.90;;;5.10;99.90;;;;;;493980;241;27933;-71
2024/03/28 00:33:15;;;;;;;3.30;3.00;;;5.00;99.90;;;;;;493984;241;27463;-71
2024/03/28 00:35:17;;;;;;;5.18;3.17;;;5.00;99.90;;;;;;493981;241;27642;-71
2024/03/28 00:37:18;;;;;;;3.10;2.45;;;4.90;99.90;;;;;;493919;241;27542;-71
2024/03/28 00:39:19;;;;;;;3.10;2.90;;;4.90;99.90;;;;;;493959;241;27583;-71
2024/03/28 00:41:20;;;;;;;3.47;2.83;;;4.90;99.90;;;;;;493985;241;27508;-73
2024/03/28 00:43:22;;;;;;;3.67;3.37;;;4.80;99.90;;;;;;493979;241;27927;-71
2024/03/28 00:45:23;;;;;;;3.45;3.05;;;4.80;99.90;;;;;;493988;241;28046;-71
2024/03/28 00:47:24;;;;;;;3.10;2.80;;;4.70;99.90;;;;;;493968;241;27470;-71
2024/03/28 00:49:26;;;;;;;3.28;2.95;;;4.80;99.90;;;;;;493973;241;27472;-71
2024/03/28 00:51:27;;;;;;;3.65;3.03;;;4.70;99.90;;;;;;493968;241;27493;-72
2024/03/28 00:53:28;;;;;;;3.50;3.20;;;4.70;99.90;;;;;;493968;241;27459;-71
2024/03/28 00:55:29;;;;;;;3.08;2.87;;;4.70;99.90;;;;;;493941;237;27537;-72
2024/03/28 00:57:31;;;;;;;3.35;3.08;;;4.70;99.90;;;;;;493970;241;27538;-70
2024/03/28 00:59:32;;;;;;;5.28;3.35;;;4.60;99.90;;;;;;494009;241;27888;-70
2024/03/28 01:01:33;;;;;;;3.58;3.10;;;4.60;99.90;;;;;;493996;241;28095;-71
2024/03/28 01:03:34;;;;;;;4.00;3.15;;;4.50;99.90;;;;;;493966;241;27561;-71
2024/03/28 01:05:36;;;;;;;5.60;3.25;;;4.50;99.90;;;;;;493955;241;27592;-71
2024/03/28 01:07:37;;;;;;;3.78;3.40;;;4.50;99.90;;;;;;493976;241;27525;-73
2024/03/28 01:09:38;;;;;;;2.95;2.75;;;4.50;99.90;;;;;;493978;241;27484;-71
2024/03/28 01:11:39;;;;;;;3.97;3.55;;;4.60;99.90;;;;;;493975;241;27501;-71
2024/03/28 01:13:41;;;;;;;3.28;2.97;;;4.50;99.90;;;;;;493956;237;27895;-71
2024/03/28 01:15:42;;;;;;;3.67;3.03;;;4.50;99.90;;;;;;493994;241;27926;-70
2024/03/28 01:17:43;;;;;;;3.47;2.95;;;4.50;99.90;;;;;;494000;241;27669;-72
2024/03/28 01:19:44;;;;;;;3.08;2.78;;;4.50;99.90;;;;;;494022;241;27532;-71
2024/03/28 01:21:46;;;;;;;3.22;2.92;;;4.50;99.90;;;;;;493947;241;27497;-71
2024/03/28 01:23:47;;;;;;;3.30;3.03;;;4.50;99.90;;;;;;493948;241;27463;-71
2024/03/28 01:25:48;;;;;;;2.70;2.50;;;4.50;99.90;;;;;;494020;241;27463;-71
2024/03/28 01:27:49;;;;;;;3.03;2.80;;;4.50;99.90;;;;;;493999;237;27576;-72
2024/03/28 01:29:51;;;;;;;2.90;2.70;;;4.40;99.90;;;;;;493986;241;27890;-71
2024/03/28 01:31:52;;;;;;;2.50;2.40;;;4.50;99.90;;;;;;493973;241;27972;-71
2024/03/28 01:33:53;;;;;;;2.70;2.50;;;4.50;99.90;;;;;;494021;241;28070;-72
2024/03/28 01:35:54;;;;;;;4.15;2.70;;;4.40;99.90;;;;;;493811;237;27496;-71
2024/03/28 01:37:56;;;;;;;2.42;2.30;;;4.40;99.90;;;;;;493970;241;27593;-74
2024/03/28 01:39:57;;;;;;;2.70;2.50;;;4.40;99.90;;;;;;493965;241;27477;-71
2024/03/28 01:41:58;;;;;;;2.80;2.60;;;4.40;99.90;;;;;;493991;241;27513;-71
2024/03/28 01:43:59;;;;;;;2.80;2.60;;;4.40;99.90;;;;;;494007;241;27547;-73
2024/03/28 01:46:01;;;;;;;2.10;2.00;;;4.30;99.90;;;;;;493976;237;27565;-70
2024/03/28 01:48:02;;;;;;;2.47;2.28;;;4.30;99.90;;;;;;493944;241;27992;-71
2024/03/28 01:50:03;;;;;;;2.90;2.70;;;4.20;99.90;;;;;;493907;241;28478;-73
2024/03/28 01:52:04;;;;;;;2.72;2.53;;;4.20;99.90;;;;;;493969;241;27932;-74
2024/03/28 01:54:06;;;;;;;2.17;2.03;;;4.20;99.90;;;;;;493960;241;27509;-72
2024/03/28 01:56:07;;;;;;;2.55;2.35;;;4.10;99.90;;;;;;493913;241;27469;-71
2024/03/28 01:58:08;;;;;;;2.47;2.20;;;4.00;99.90;;;;;;493873;237;27624;-72
2024/03/28 02:00:09;;;;;;;2.45;2.25;;;4.10;99.90;;;;;;493939;241;27579;-71
2024/03/28 02:02:11;;;;;;;2.70;2.50;;;4.00;99.90;;;;;;493940;241;27473;-71
2024/03/28 02:04:12;;;;;;;2.22;2.12;;;4.00;99.90;;;;;;493928;241;27532;-71
2024/03/28 02:06:13;;;;;;;2.72;2.53;;;3.90;99.90;;;;;;493887;241;27515;-73
2024/03/28 02:08:14;;;;;;;2.28;2.12;;;3.90;99.90;;;;;;493901;241;27967;-73
2024/03/28 02:10:16;;;;;;;2.10;1.90;;;3.90;99.90;;;;;;493962;241;28108;-72
2024/03/28 02:12:17;;;;;;;3.72;2.58;;;3.80;99.90;;;;;;493920;241;27949;-71
2024/03/28 02:14:18;;;;;;;2.08;1.92;;;3.80;99.90;;;;;;493923;241;27569;-71
2024/03/28 02:16:19;;;;;;;2.40;2.30;;;3.80;99.90;;;;;;493934;241;27467;-71
2024/03/28 02:18:21;;;;;;;2.35;2.22;;;3.70;99.90;;;;;;493924;241;27579;-71
2024/03/28 02:20:22;;;;;;;2.60;2.40;;;3.60;99.90;;;;;;493955;241;27494;-71
2024/03/28 02:22:23;;;;;;;2.10;1.90;;;3.50;99.90;;;;;;493930;241;27505;-71
2024/03/28 02:24:25;;;;;;;2.47;2.30;;;3.50;99.90;;;;;;493929;241;27523;-71
2024/03/28 02:26:26;;;;;;;3.85;2.40;;;3.50;99.90;;;;;;493977;241;27639;-71
2024/03/28 02:28:27;;;;;;;2.15;2.05;;;3.50;99.90;;;;;;493958;241;27466;-71
2024/03/28 02:30:28;;;;;;;2.50;2.30;;;3.40;99.90;;;;;;493927;241;27495;-71
2024/03/28 02:32:30;;;;;;;2.25;2.15;;;3.40;99.90;;;;;;493908;241;27572;-71
2024/03/28 02:34:31;;;;;;;2.80;2.60;;;3.50;99.90;;;;;;493920;241;27490;-71
2024/03/28 02:36:32;;;;;;;3.40;2.60;;;3.40;99.90;;;;;;493987;241;28049;-72
2024/03/28 02:38:33;;;;;;;2.75;2.55;;;3.40;99.90;;;;;;493905;241;27541;-71
2024/03/28 02:40:35;;;;;;;3.12;2.92;;;3.50;99.90;;;;;;493915;241;27988;-72
2024/03/28 02:42:36;;;;;;;3.58;2.37;;;3.40;99.90;;;;;;493882;241;27930;-71
2024/03/28 02:44:37;;;;;;;3.40;2.22;;;3.40;99.90;;;;;;493929;241;29113;-71
2024/03/28 02:46:38;;;;;;;3.17;2.17;;;3.40;99.90;;;;;;493955;241;27585;-71
2024/03/28 02:48:40;;;;;;;2.80;2.60;;;3.40;99.90;;;;;;493914;241;27466;-70
2024/03/28 02:50:41;;;;;;;2.92;2.55;;;3.40;99.90;;;;;;493907;241;27491;-71
2024/03/28 02:52:42;;;;;;;3.78;2.50;;;3.40;99.90;;;;;;493925;241;27529;-71
2024/03/28 02:54:43;;;;;;;6.95;2.40;;;3.50;99.90;;;;;;493960;241;27587;-71
2024/03/28 02:56:45;;;;;;;2.37;2.17;;;3.50;99.90;;;;;;493960;241;27537;-72
2024/03/28 02:58:46;;;;;;;4.22;2.05;;;3.50;99.90;;;;;;493949;241;27469;-71
2024/03/28 03:00:47;;;;;;;2.40;2.20;;;3.50;99.90;;;;;;493948;241;28043;-71
2024/03/28 03:02:48;;;;;;;2.50;2.30;;;3.60;99.90;;;;;;493979;241;27973;-72
2024/03/28 03:04:50;;;;;;;2.58;2.30;;;3.70;99.90;;;;;;493936;241;27930;-71
2024/03/28 03:06:51;;;;;;;2.33;2.17;;;3.80;99.90;;;;;;493935;241;28010;-71
2024/03/28 03:08:52;;;;;;;2.60;2.40;;;3.80;99.90;;;;;;493934;241;27467;-71
2024/03/28 03:10:53;;;;;;;2.25;2.08;;;3.90;99.90;;;;;;493949;241;27509;-71
2024/03/28 03:12:55;;;;;;;3.70;2.50;;;3.90;99.90;;;;;;493983;241;27516;-71
2024/03/28 03:14:56;;;;;;;2.47;2.28;;;3.90;99.90;;;;;;493944;241;27454;-71
2024/03/28 03:16:57;;;;;;;2.58;2.37;;;4.00;99.90;;;;;;493905;241;27505;-71
2024/03/28 03:18:58;;;;;;;1.90;1.80;;;4.10;99.90;;;;;;493878;241;27546;-71
2024/03/28 03:21:00;;;;;;;2.60;2.40;;;4.10;99.90;;;;;;493961;241;27463;-71
2024/03/28 03:23:04;;;;;;;2.55;2.35;;;4.20;99.90;;;;;;493929;241;27497;-72
2024/03/28 03:25:13;;;;;;;2.30;2.10;;;4.20;99.90;;;;;;493935;241;27513;-71
2024/03/28 03:27:16;;;;;;;3.67;2.05;;;4.30;99.90;;;;;;493796;241;27457;-71
2024/03/28 03:36:11;;;;;;;3.12;2.05;;;4.00;99.90;;;;;;493937;241;28087;-72
2024/03/28 03:38:13;;;;;;;2.40;2.22;;;4.00;99.90;;;;;;493920;241;28444;-71
2024/03/28 03:40:14;;;;;;;2.62;2.25;;;4.00;99.90;;;;;;493949;241;27516;-71
2024/03/28 03:42:15;;;;;;;2.67;2.45;;;4.00;99.90;;;;;;493929;241;27611;-72
2024/03/28 03:44:16;;;;;;;3.17;2.50;;;4.00;99.90;;;;;;493912;241;27451;-71
2024/03/28 03:46:18;;;;;;;2.40;2.20;;;4.00;99.90;;;;;;493910;241;27522;-71
2024/03/28 03:48:19;;;;;;;2.87;1.95;;;4.00;99.90;;;;;;493980;241;28027;-72
2024/03/28 03:50:20;;;;;;;2.03;1.92;;;4.00;99.90;;;;;;493965;241;27473;-72
2024/03/28 03:52:21;;;;;;;2.65;2.20;;;4.00;99.90;;;;;;493948;241;27532;-72
2024/03/28 03:54:23;;;;;;;2.60;2.40;;;4.00;99.90;;;;;;493948;241;27524;-72
2024/03/28 03:56:25;;;;;;;3.15;2.33;;;4.00;99.90;;;;;;493789;241;27961;-73
2024/03/28 03:58:25;;;;;;;2.10;1.90;;;4.00;99.90;;;;;;493958;241;27958;-72
2024/03/28 04:00:26;;;;;;;2.10;2.00;;;4.00;99.90;;;;;;493932;241;27956;-71
2024/03/28 04:02:28;;;;;;;2.30;2.10;;;4.00;99.90;;;;;;493936;241;27509;-71
2024/03/28 04:04:29;;;;;;;1.85;1.73;;;4.00;99.90;;;;;;493945;241;27526;-71
2024/03/28 04:06:30;;;;;;;1.90;1.70;;;4.10;99.90;;;;;;493978;241;27563;-71
2024/03/28 04:08:32;;;;;;;2.00;1.90;;;4.10;99.90;;;;;;493974;241;27494;-72
2024/03/28 04:10:33;;;;;;;1.80;1.70;;;4.00;99.90;;;;;;493950;241;27481;-72
2024/03/28 04:12:34;;;;;;;3.08;1.65;;;4.00;99.90;;;;;;493939;241;27528;-71
2024/03/28 04:14:35;;;;;;;2.30;2.00;;;4.10;99.90;;;;;;493979;241;27839;-73
2024/03/28 04:16:37;;;;;;;2.20;1.73;;;4.00;99.90;;;;;;493978;241;27493;-71
2024/03/28 04:18:38;;;;;;;2.17;1.70;;;4.00;99.90;;;;;;493939;241;27986;-72
2024/03/28 04:20:39;;;;;;;2.05;1.75;;;4.00;99.90;;;;;;493929;241;28062;-71
2024/03/28 04:22:40;;;;;;;1.83;1.58;;;4.10;99.90;;;;;;493963;241;27988;-71
2024/03/28 04:24:42;;;;;;;1.80;1.70;;;4.10;99.90;;;;;;493988;241;27537;-73
2024/03/28 04:26:43;;;;;;;1.73;1.62;;;4.10;99.90;;;;;;494000;241;27558;-72
2024/03/28 04:28:44;;;;;;;1.83;1.73;;;4.10;99.90;;;;;;493992;241;27509;-71
2024/03/28 04:30:45;;;;;;;1.85;1.75;;;4.10;99.90;;;;;;493976;241;27465;-72
2024/03/28 04:32:47;;;;;;;1.70;1.60;;;4.10;99.90;;;;;;493975;241;27601;-72
2024/03/28 04:34:48;;;;;;;2.55;1.50;;;4.00;99.90;;;;;;493956;241;27625;-71
2024/03/28 04:36:49;;;;;;;2.58;1.77;;;4.00;99.90;;;;;;493993;241;27506;-71
2024/03/28 04:38:50;;;;;;;1.80;1.70;;;4.00;99.90;;;;;;493933;241;27484;-72
2024/03/28 04:40:52;;;;;;;3.40;1.65;;;4.00;99.90;;;;;;493983;241;28067;-72
2024/03/28 04:42:53;;;;;;;1.85;1.70;;;4.00;99.90;;;;;;493977;241;27898;-71
2024/03/28 04:44:54;;;;;;;2.35;1.67;;;4.10;99.90;;;;;;493987;241;28078;-72
2024/03/28 04:46:57;;;;;;;2.55;1.50;;;4.10;99.90;;;;;;493930;241;27541;-72
2024/03/28 04:48:57;;;;;;;3.67;1.60;;;4.20;99.90;;;;;;493830;241;27514;-71
2024/03/28 04:50:58;;;;;;;3.08;2.17;;;4.20;99.90;;;;;;494002;241;27540;-72
2024/03/28 04:52:59;;;;;;;1.85;1.75;;;4.30;99.90;;;;;;493974;241;27469;-71
2024/03/28 04:55:00;;;;;;;2.05;1.95;;;4.30;99.90;;;;;;493952;241;27504;-71
2024/03/28 04:57:02;;;;;;;2.00;1.80;;;4.40;99.90;;;;;;493867;241;27558;-71
2024/03/28 04:59:03;;;;;;;1.80;1.70;;;4.60;99.90;;;;;;493950;241;27582;-74
2024/03/28 05:01:04;;;;;;;2.22;2.03;;;4.70;99.90;;;;;;493959;241;27536;-72
2024/03/28 05:03:05;;;;;;;1.90;1.80;;;4.80;99.90;;;;;;493948;241;28023;-71
2024/03/28 05:05:08;;;;;;;1.37;1.30;;;4.90;99.90;;;;;;493939;241;28010;-71
2024/03/28 05:07:08;;;;;;;1.50;1.40;;;5.00;99.90;;;;;;493822;241;27948;-71
2024/03/28 05:09:09;;;;;;;2.10;1.60;;;5.00;99.90;;;;;;493927;241;27468;-71
2024/03/28 05:11:10;;;;;;;1.62;1.52;;;5.10;99.90;;;;;;493938;241;27541;-74
2024/03/28 05:13:12;;;;;;;1.60;1.50;;;5.10;99.90;;;;;;493924;241;27492;-71
2024/03/28 05:15:13;;;;;;;1.87;1.70;;;5.20;99.90;;;;;;493921;241;27533;-71
2024/03/28 05:17:14;;;;;;;2.67;1.85;;;5.30;99.90;;;;;;493976;241;27937;-72
2024/03/28 05:19:15;;;;;;;2.20;1.90;;;5.30;99.90;;;;;;493936;241;27470;-71
2024/03/28 05:21:18;;;;;;;1.65;1.55;;;5.30;99.90;;;;;;493955;241;28026;-74
2024/03/28 05:23:18;;;;;;;1.67;1.58;;;5.50;99.90;;;;;;493866;237;27890;-71
2024/03/28 05:25:19;;;;;;;1.70;1.60;;;5.50;99.90;;;;;;493964;241;27560;-71
2024/03/28 05:27:20;;;;;;;1.40;1.40;;;5.60;99.90;;;;;;494000;241;27512;-75
2024/03/28 05:29:22;;;;;;;1.48;1.37;;;5.70;99.90;;;;;;493970;241;27466;-72
2024/03/28 05:31:23;;;;;;;1.70;1.50;;;5.70;99.90;;;;;;493953;241;27570;-72
2024/03/28 05:33:24;;;;;;;1.50;1.40;;;5.70;99.90;;;;;;493948;241;27538;-71
2024/03/28 05:35:25;;;;;;;1.40;1.30;;;5.70;99.90;;;;;;493975;241;27914;-72
2024/03/28 05:37:27;;;;;;;1.80;1.33;;;5.80;99.90;;;;;;493956;241;27971;-74
2024/03/28 05:39:28;;;;;;;1.60;1.50;;;5.80;99.90;;;;;;493950;241;27565;-73
2024/03/28 05:41:29;;;;;;;1.83;1.40;;;5.80;99.90;;;;;;493939;241;27538;-73
2024/03/28 05:43:30;;;;;;;1.30;1.30;;;5.90;99.90;;;;;;494013;241;27533;-74
2024/03/28 05:45:32;;;;;;;1.33;1.23;;;6.00;99.90;;;;;;493928;241;27465;-73
2024/03/28 05:47:33;;;;;;;2.45;1.37;;;6.00;99.90;;;;;;493957;241;27550;-71
2024/03/28 05:49:34;;;;;;;1.55;1.45;;;6.00;99.90;;;;;;493954;241;28031;-71
2024/03/28 05:51:35;;;;;;;2.37;1.77;;;6.00;99.90;;;;;;493991;241;27941;-71
2024/03/28 05:53:37;;;;;;;1.37;1.27;;;6.00;99.90;;;;;;493999;241;27534;-74
2024/03/28 05:55:38;;;;;;;1.52;1.40;;;5.90;99.90;;;;;;493919;241;27613;-73
2024/03/28 05:57:39;;;;;;;1.70;1.45;;;5.80;99.90;;;;;;493918;237;27628;-73
2024/03/28 05:59:41;;;;;;;3.00;1.70;;;5.60;99.90;;;;;;493814;241;27613;-73
2024/03/28 06:01:42;;;;;;;1.70;1.60;;;5.50;99.90;;;;;;493999;241;28799;-73
2024/03/28 06:03:43;;;;;;;1.67;1.57;;;5.30;99.90;;;;;;494004;241;28025;-71
2024/03/28 06:05:44;;;;;;;2.25;1.52;;;5.30;99.90;;;;;;493945;241;29480;-74
2024/03/28 06:07:46;;;;;;;3.40;1.75;;;5.30;99.90;;;;;;493905;237;27649;-71
2024/03/28 06:09:47;;;;;;;1.75;1.65;;;5.30;99.90;;;;;;493979;241;27540;-72
2024/03/28 06:11:48;;;;;;;1.70;1.60;;;5.30;99.90;;;;;;493935;241;27568;-74
2024/03/28 06:13:49;;;;;;;1.70;1.60;;;5.20;99.90;;;;;;493944;237;27604;-71
2024/03/28 06:15:51;;;;;;;1.85;1.70;;;5.30;99.90;;;;;;493937;241;27474;-71
2024/03/28 06:17:52;;;;;;;1.70;1.60;;;5.30;99.90;;;;;;493990;241;27941;-72
2024/03/28 06:19:53;;;;;;;1.70;1.60;;;5.30;99.90;;;;;;493962;237;28034;-75
2024/03/28 06:21:54;;;;;;;2.17;1.87;;;5.30;99.90;;;;;;493832;241;27506;-73
2024/03/28 06:23:56;;;;;;;1.70;1.60;;;5.20;99.90;;;;;;493928;241;27511;-74
2024/03/28 06:25:57;;;;;;;2.60;2.00;;;5.20;99.90;;;;;;493971;241;27505;-71
2024/03/28 06:27:58;;;;;;;1.70;1.60;;;5.20;99.90;;;;;;493990;241;27462;-72
2024/03/28 06:29:59;;;;;;;1.60;1.50;;;5.20;99.90;;;;;;493958;241;27517;-74
2024/03/28 06:32:01;;;;;;;2.03;1.92;;;5.20;99.90;;;;;;493940;241;27915;-71
2024/03/28 06:34:02;;;;;;;2.10;1.90;;;5.20;99.90;;;;;;493906;237;27986;-74
2024/03/28 06:36:04;;;;;;;2.60;1.77;;;5.20;99.90;;;;;;494001;241;27535;-75
2024/03/28 06:38:04;;;;;;;4.30;2.28;;;5.20;99.90;;;;;;493915;241;27506;-74
2024/03/28 06:40:06;;;;;;;1.70;1.60;;;5.10;99.90;;;;;;493947;241;27517;-74
2024/03/28 06:42:07;;;;;;;2.80;1.83;;;5.20;99.90;;;;;;493952;241;27464;-73
2024/03/28 06:44:08;;;;;;;1.87;1.77;;;5.20;99.90;;;;;;493975;241;27497;-71
2024/03/28 06:46:09;;;;;;;2.00;1.67;;;5.20;99.90;;;;;;493980;241;28086;-75
2024/03/28 06:48:11;;;;;;;2.12;1.80;;;5.20;99.90;;;;;;493956;241;27929;-71
2024/03/28 06:50:12;;;;;;;2.08;1.92;;;5.20;99.90;;;;;;493935;241;27553;-74
2024/03/28 06:52:13;;;;;;;2.70;1.87;;;5.20;99.90;;;;;;493974;241;27585;-71
2024/03/28 06:54:14;;;;;;;1.60;1.50;;;5.30;99.90;;;;;;493963;241;27509;-74
2024/03/28 06:56:16;;;;;;;1.92;1.70;;;5.30;99.90;;;;;;493942;241;27510;-74
2024/03/28 06:58:17;;;;;;;2.47;1.50;;;5.20;99.90;;;;;;493921;241;27545;-73
2024/03/28 07:00:19;;;;;;;2.60;1.85;;;5.30;99.90;;;;;;493904;241;27534;-72
2024/03/28 07:02:20;;;;;;;2.25;1.98;;;5.30;99.90;;;;;;493955;237;28021;-75
2024/03/28 07:04:21;;;;;;;2.65;1.62;;;5.40;99.90;;;;;;493974;241;27974;-74
2024/03/28 07:06:22;;;;;;;1.70;1.60;;;5.40;99.90;;;;;;493953;241;27540;-74
2024/03/28 07:08:23;;;;;;;1.70;1.60;;;5.50;99.90;;;;;;493893;241;27453;-73
2024/03/28 07:10:25;;;;;;;2.35;1.50;;;5.50;99.90;;;;;;493975;241;27522;-71
2024/03/28 07:12:26;;;;;;;2.05;1.95;;;5.60;99.90;;;;;;493950;241;27540;-71
2024/03/28 07:14:27;;;;;;;1.60;1.50;;;5.60;99.90;;;;;;493928;241;27558;-73
2024/03/28 07:16:28;;;;;;;1.67;1.50;;;5.70;99.90;;;;;;493950;241;28078;-74
2024/03/28 07:18:30;;;;;;;1.52;1.42;;;5.60;99.90;;;;;;493943;241;28701;-74
2024/03/28 07:20:31;;;;;;;1.60;1.50;;;5.60;99.90;;;;;;494008;241;27469;-74
2024/03/28 07:22:32;;;;;;;1.90;1.60;;;5.60;99.90;;;;;;494003;241;27618;-75
2024/03/28 07:24:33;;;;;;;2.87;1.70;;;5.60;99.90;;;;;;493984;241;27450;-71
2024/03/28 07:26:36;;;;;;;2.97;1.62;;;5.60;99.90;;;;;;493954;241;27509;-71
2024/03/28 07:28:36;;;;;;;1.90;1.73;;;5.60;99.90;;;;;;493863;241;27646;-77
2024/03/28 07:30:39;;;;;;;1.50;1.40;;;5.70;99.90;;;;;;494010;241;28033;-71
2024/03/28 07:32:38;;;;;;;1.85;1.60;;;5.80;99.90;;;;;;493887;241;27981;-71
2024/03/28 07:34:40;;;;;;;1.60;1.50;;;6.00;99.90;;;;;;493916;241;27583;-71
2024/03/28 07:36:41;;;;;;;1.87;1.77;;;6.20;99.90;;;;;;494010;241;27484;-74
2024/03/28 07:38:43;;;;;;;1.48;1.37;;;6.30;99.90;;;;;;493965;241;27511;-76
2024/03/28 07:40:43;;;;;;;1.60;1.50;;;6.30;99.90;;;;;;493962;237;27563;-71
2024/03/28 07:42:45;;;;;;;1.40;1.40;;;6.20;99.90;;;;;;493987;241;28386;-72
2024/03/28 07:44:46;;;;;;;1.58;1.48;;;6.20;99.90;;;;;;493982;241;28702;-73
2024/03/28 07:46:47;;;;;;;1.67;1.57;;;6.20;99.90;;;;;;494020;241;28168;-72
2024/03/28 07:48:48;;;;;;;1.20;1.20;;;6.30;99.90;;;;;;494001;241;28123;-74
2024/03/28 07:50:50;;;;;;;1.45;1.35;;;6.30;99.90;;;;;;494001;241;28899;-72
2024/03/28 07:52:51;;;;;;;2.28;1.60;;;6.20;99.90;;;;;;493974;241;27549;-72
2024/03/28 07:54:52;;;;;;;2.43;1.63;;;6.30;99.90;;;;;;494040;241;27896;-74
2024/03/28 07:56:53;;;;;;;1.70;1.60;;;6.40;99.90;;;;;;494018;241;27662;-73
2024/03/28 07:58:55;;;;;;;2.07;1.37;;;6.60;99.90;;;;;;494028;241;27996;-72
2024/03/28 08:00:56;;;;;;;1.60;1.50;;;6.80;99.90;;;;;;493998;241;27832;-74
2024/03/28 08:02:57;;;;;;;3.33;1.50;;;7.00;99.90;;;;;;493770;241;28085;-73
2024/03/28 08:04:59;;;;;;;2.57;1.53;;;7.20;99.90;;;;;;494016;241;27609;-74
2024/03/28 08:07:00;;;;;;;1.50;1.40;;;7.20;99.90;;;;;;493980;241;27988;-74
2024/03/28 08:09:01;;;;;;;1.50;1.40;;;7.10;99.90;;;;;;493944;241;27845;-74
2024/03/28 08:11:02;;;;;;;1.70;1.60;;;7.00;99.90;;;;;;493950;241;27947;-74
2024/03/28 08:13:04;;;;;;;2.23;1.60;;;7.00;99.90;;;;;;493965;241;27597;-74
2024/03/28 08:15:05;;;;;;;4.43;1.83;;;7.10;99.90;;;;;;493884;237;28041;-74
2024/03/28 08:17:07;;;;;;;2.53;1.80;;;7.30;99.90;;;;;;493938;241;27800;-74
2024/03/28 08:19:08;;;;;;;1.60;1.50;;;7.20;99.90;;;;;;493875;241;27869;-74
2024/03/28 08:21:08;;;;;;;3.13;1.57;;;7.00;99.90;;;;;;493939;241;27993;-73
2024/03/28 08:23:10;;;;;;;2.90;1.80;;;6.90;99.90;;;;;;493993;241;27906;-73
2024/03/28 08:25:11;;;;;;;1.63;1.53;;;6.80;99.90;;;;;;493990;241;27871;-73
2024/03/28 08:27:12;;;;;;;2.30;1.90;;;6.60;99.90;;;;;;493932;241;27825;-73
2024/03/28 08:29:13;;;;;;;1.47;1.37;;;6.50;99.90;;;;;;493941;241;27979;-74
2024/03/28 08:31:15;;;;;;;1.60;1.50;;;6.50;99.90;;;;;;493997;241;28437;-75
2024/03/28 08:33:16;;;;;;;1.83;1.43;;;6.60;99.90;;;;;;493995;237;28167;-73
2024/03/28 08:35:18;;;;;;;1.53;1.43;;;6.60;99.90;;;;;;493980;241;28469;-73
2024/03/28 08:37:19;;;;;;;2.00;1.80;;;6.60;99.90;;;;;;493883;241;28455;-74
2024/03/28 08:39:24;;;;;;;1.97;1.57;;;6.60;99.90;;;;;;493810;241;28519;-73
2024/03/28 08:41:21;;;;;;;1.80;1.70;;;6.60;99.90;;;;;;493674;241;28626;-75
2024/03/28 08:43:22;;;;;;;1.63;1.53;;;6.80;99.90;;;;;;493970;237;28377;-72
2024/03/28 08:45:24;;;;;;;2.07;1.77;;;6.80;99.90;;;;;;493963;241;28639;-74
2024/03/28 08:47:25;;;;;;;2.00;1.80;;;6.90;99.90;;;;;;493957;241;27824;-73
2024/03/28 08:49:28;;;;;;;1.63;1.53;;;6.90;99.90;;;;;;493992;241;27956;-73
2024/03/28 08:51:27;;;;;;;1.30;1.30;;;6.90;99.90;;;;;;493871;241;28050;-74
2024/03/28 08:53:28;;;;;;;1.97;1.40;;;7.00;99.90;;;;;;493984;241;27799;-70
2024/03/28 08:55:30;;;;;;;1.50;1.40;;;6.90;99.90;;;;;;493910;241;27716;-73
2024/03/28 08:57:31;;;;;;;1.63;1.50;;;6.80;99.90;;;;;;493955;241;27985;-73
2024/03/28 08:59:32;;;;;;;4.83;1.60;;;6.80;99.90;;;;;;494004;241;27907;-73
2024/03/28 09:01:34;;;;;;;1.60;1.50;;;6.80;99.90;;;;;;493979;241;27995;-74
2024/03/28 09:03:35;;;;;;;2.43;1.63;;;6.70;99.90;;;;;;493924;241;27976;-74
2024/03/28 09:05:38;;;;;;;2.97;1.70;;;6.70;99.90;;;;;;493961;241;28208;-74
2024/03/28 09:07:38;;;;;;;1.60;1.50;;;6.70;99.90;;;;;;493852;241;28510;-73
2024/03/28 09:09:38;;;;;;;1.40;1.30;;;6.80;99.90;;;;;;493982;241;27831;-71
2024/03/28 09:11:40;;;;;;;1.50;1.40;;;6.80;99.90;;;;;;493950;241;28128;-72
2024/03/28 09:13:41;;;;;;;1.30;1.20;;;6.70;99.90;;;;;;493970;241;27829;-74
2024/03/28 09:15:42;;;;;;;1.67;1.50;;;6.60;99.90;;;;;;493960;241;28391;-74
2024/03/28 09:17:43;;;;;;;1.30;1.20;;;6.50;99.90;;;;;;493972;241;28382;-74
2024/03/28 09:19:45;;;;;;;2.10;1.20;;;6.50;99.90;;;;;;493989;241;28103;-73
2024/03/28 09:21:46;;;;;;;2.72;1.40;;;6.40;99.90;;;;;;493951;241;29441;-74
2024/03/28 09:23:48;;;;;;;2.03;1.20;;;6.40;99.90;;;;;;493776;241;27462;-74
2024/03/28 09:25:48;;;;;;;1.10;1.10;;;6.20;99.90;;;;;;493953;241;27994;-74
2024/03/28 09:27:50;;;;;;;2.30;1.10;;;6.10;99.90;;;;;;493983;241;28812;-74
2024/03/28 09:29:52;;;;;;;1.37;1.07;;;6.10;99.90;;;;;;493959;237;27983;-72
2024/03/28 09:31:52;;;;;;;2.08;1.10;;;6.10;99.90;;;;;;493909;241;28003;-73
2024/03/28 09:33:53;;;;;;;1.62;1.00;;;6.10;99.90;;;;;;493895;241;27533;-73
2024/03/28 09:35:55;;;;;;;2.33;1.00;;;6.00;99.90;;;;;;493806;241;27498;-72
2024/03/28 09:37:56;;;;;;;0.80;0.80;;;5.90;99.90;;;;;;493909;241;27878;-72
2024/03/28 09:39:57;;;;;;;1.00;0.90;;;5.70;99.90;;;;;;493926;241;29284;-71
2024/03/28 09:41:58;;;;;;;1.77;1.10;;;5.80;99.90;;;;;;493891;241;28497;-73
2024/03/28 09:44:00;;;;;;;1.23;1.03;;;6.10;99.90;;;;;;493960;241;28987;-75
2024/03/28 09:46:01;;;;;;;3.57;0.93;;;6.40;99.90;;;;;;493976;241;28042;-71
2024/03/28 09:48:02;;;;;;;2.63;1.50;;;6.70;99.90;;;;;;493948;237;28480;-71
2024/03/28 09:50:07;;;;;;;0.90;0.90;;;6.90;99.90;;;;;;493938;241;28056;-72
2024/03/28 09:52:05;;;;;;;1.03;0.80;;;6.90;99.90;;;;;;493690;241;27517;-73
2024/03/28 09:54:06;;;;;;;1.27;0.77;;;7.10;99.90;;;;;;494004;241;27949;-75
2024/03/28 09:56:07;;;;;;;0.90;0.90;;;7.00;99.90;;;;;;493974;241;28022;-73
2024/03/28 09:58:09;;;;;;;1.67;0.90;;;7.20;99.90;;;;;;493948;241;27934;-73
2024/03/28 10:00:11;;;;;;;1.17;1.07;;;7.30;99.90;;;;;;493938;241;27896;-73
2024/03/28 10:02:11;;;;;;;0.97;0.97;;;7.40;99.90;;;;;;493878;241;27936;-74
2024/03/28 10:04:12;;;;;;;0.83;0.83;;;7.70;99.90;;;;;;493997;241;27838;-74
2024/03/28 10:06:13;;;;;;;2.17;1.23;;;7.70;99.90;;;;;;493958;241;27958;-73
2024/03/28 10:08:15;;;;;;;1.20;1.10;;;7.50;99.90;;;;;;493900;241;28378;-73
2024/03/28 10:10:16;;;;;;;1.50;1.10;;;7.10;99.90;;;;;;493947;241;27980;-73
2024/03/28 10:12:17;;;;;;;1.07;1.00;;;6.80;99.90;;;;;;493984;241;27820;-73
2024/03/28 10:14:19;;;;;;;2.30;1.10;;;6.40;99.90;;;;;;493987;241;28165;-73
2024/03/28 10:16:22;;;;;;;1.13;1.10;;;6.20;99.90;;;;;;493961;237;27996;-73
2024/03/28 10:18:21;;;;;;;4.00;1.13;;;6.00;99.90;;;;;;493762;241;28124;-73
2024/03/28 10:20:24;;;;;;;2.43;0.90;;;5.90;99.90;;;;;;493998;241;28485;-75
2024/03/28 10:22:24;;;;;;;1.07;0.80;;;5.90;99.90;;;;;;493840;241;29504;-74
2024/03/28 10:24:25;;;;;;;0.90;0.90;;;5.80;99.90;;;;;;493960;241;28509;-72
2024/03/28 10:26:28;;;;;;;0.90;0.90;;;5.50;99.90;;;;;;493922;241;28442;-71
2024/03/28 10:28:29;;;;;;;1.23;0.93;;;5.60;99.90;;;;;;493803;241;29287;-74
2024/03/28 10:30:29;;;;;;;0.70;0.70;;;5.70;99.90;;;;;;493909;241;27546;-76
2024/03/28 10:32:30;;;;;;;1.47;1.00;;;5.90;99.90;;;;;;493918;241;27473;-72
2024/03/28 10:34:31;;;;;;;0.80;0.80;;;6.00;99.90;;;;;;493937;241;28871;-71
2024/03/28 10:36:32;;;;;;;1.00;1.00;;;6.30;99.90;;;;;;493933;241;28580;-74
2024/03/28 10:38:34;;;;;;;0.80;0.80;;;6.20;99.90;;;;;;493966;241;27797;-74
2024/03/28 10:40:38;;;;;;;1.13;0.90;;;6.20;99.90;;;;;;493996;241;27827;-72
2024/03/28 10:42:39;;;;;;;1.37;0.98;;;6.10;99.90;;;;;;493938;241;28088;-72
2024/03/28 10:44:41;;;;;;;8.20;1.07;;;5.90;99.90;;;;;;493917;237;27469;-71
2024/03/28 10:46:42;;;;;;;1.63;1.00;;;5.70;99.90;;;;;;493933;241;28034;-74